sensor_id;sensor_type;location;lat;lon;timestamp;pressure;altitude;pressure_sealevel;temperature
62706;BMP280;51050;51.784;9.372;2022-07-23T00:00:04;100673.44;;;16.53
62706;BMP280;51050;51.784;9.372;2022-07-23T00:02:30;100686.81;;;16.38
62706;BMP280;51050;51.784;9.372;2022-07-23T00:04:55;100681.38;;;16.46
62706;BMP280;51050;51.784;9.372;2022-07-23T00:07:20;100664.72;;;16.38
62706;BMP280;51050;51.784;9.372;2022-07-23T00:09:45;100667.44;;;16.29
62706;BMP280;51050;51.784;9.372;2022-07-23T00:12:10;100668.31;;;16.38
62706;BMP280;51050;51.784;9.372;2022-07-23T00:14:35;100671.69;;;16.35
62706;BMP280;51050;51.784;9.372;2022-07-23T00:17:01;100668.00;;;16.40
62706;BMP280;51050;51.784;9.372;2022-07-23T00:19:26;100663.72;;;16.34
62706;BMP280;51050;51.784;9.372;2022-07-23T00:21:51;100671.09;;;16.16
62706;BMP280;51050;51.784;9.372;2022-07-23T00:24:16;100668.69;;;16.23
62706;BMP280;51050;51.784;9.372;2022-07-23T00:26:41;100662.34;;;16.22
62706;BMP280;51050;51.784;9.372;2022-07-23T00:29:06;100662.22;;;16.27
62706;BMP280;51050;51.784;9.372;2022-07-23T00:31:31;100655.63;;;16.37
62706;BMP280;51050;51.784;9.372;2022-07-23T00:33:57;100651.53;;;16.35
62706;BMP280;51050;51.784;9.372;2022-07-23T00:36:24;100655.75;;;16.32
62706;BMP280;51050;51.784;9.372;2022-07-23T00:38:49;100658.31;;;16.28
62706;BMP280;51050;51.784;9.372;2022-07-23T00:41:15;100640.56;;;16.21
62706;BMP280;51050;51.784;9.372;2022-07-23T00:43:40;100638.84;;;16.34
62706;BMP280;51050;51.784;9.372;2022-07-23T00:46:05;100629.13;;;16.36
62706;BMP280;51050;51.784;9.372;2022-07-23T00:48:30;100634.34;;;16.38
62706;BMP280;51050;51.784;9.372;2022-07-23T00:50:55;100630.91;;;16.32
62706;BMP280;51050;51.784;9.372;2022-07-23T00:53:21;100636.47;;;16.18
62706;BMP280;51050;51.784;9.372;2022-07-23T00:55:46;100630.72;;;16.28
62706;BMP280;51050;51.784;9.372;2022-07-23T00:58:12;100621.84;;;16.18
62706;BMP280;51050;51.784;9.372;2022-07-23T01:00:37;100616.38;;;16.26
62706;BMP280;51050;51.784;9.372;2022-07-23T01:03:02;100615.25;;;16.27
62706;BMP280;51050;51.784;9.372;2022-07-23T01:05:28;100614.84;;;16.12
62706;BMP280;51050;51.784;9.372;2022-07-23T01:07:53;100611.94;;;16.17
62706;BMP280;51050;51.784;9.372;2022-07-23T01:10:18;100611.47;;;16.15
62706;BMP280;51050;51.784;9.372;2022-07-23T01:13:02;100601.22;;;16.15
62706;BMP280;51050;51.784;9.372;2022-07-23T01:15:28;100604.81;;;16.16
62706;BMP280;51050;51.784;9.372;2022-07-23T01:17:53;100614.53;;;16.13
62706;BMP280;51050;51.784;9.372;2022-07-23T01:20:19;100617.78;;;16.15
62706;BMP280;51050;51.784;9.372;2022-07-23T01:22:44;100622.66;;;16.18
62706;BMP280;51050;51.784;9.372;2022-07-23T01:25:09;100626.56;;;16.17
62706;BMP280;51050;51.784;9.372;2022-07-23T01:27:35;100630.34;;;16.21
62706;BMP280;51050;51.784;9.372;2022-07-23T01:30:00;100638.00;;;16.24
62706;BMP280;51050;51.784;9.372;2022-07-23T01:32:26;100642.06;;;16.27
62706;BMP280;51050;51.784;9.372;2022-07-23T01:34:51;100645.53;;;16.33
62706;BMP280;51050;51.784;9.372;2022-07-23T01:37:16;100649.13;;;16.33
62706;BMP280;51050;51.784;9.372;2022-07-23T01:39:41;100630.97;;;16.18
62706;BMP280;51050;51.784;9.372;2022-07-23T01:42:06;100647.91;;;16.25
62706;BMP280;51050;51.784;9.372;2022-07-23T01:44:31;100651.31;;;16.22
62706;BMP280;51050;51.784;9.372;2022-07-23T01:46:56;100646.03;;;16.12
62706;BMP280;51050;51.784;9.372;2022-07-23T01:49:22;100642.31;;;16.17
62706;BMP280;51050;51.784;9.372;2022-07-23T01:51:47;100653.56;;;16.20
62706;BMP280;51050;51.784;9.372;2022-07-23T01:54:28;100656.81;;;16.00
62706;BMP280;51050;51.784;9.372;2022-07-23T01:56:53;100660.16;;;16.11
62706;BMP280;51050;51.784;9.372;2022-07-23T01:59:19;100662.47;;;16.17
62706;BMP280;51050;51.784;9.372;2022-07-23T02:01:44;100658.56;;;16.18
62706;BMP280;51050;51.784;9.372;2022-07-23T02:04:09;100654.56;;;16.24
62706;BMP280;51050;51.784;9.372;2022-07-23T02:06:34;100660.34;;;16.14
62706;BMP280;51050;51.784;9.372;2022-07-23T02:08:59;100660.34;;;16.14
62706;BMP280;51050;51.784;9.372;2022-07-23T02:11:24;100664.53;;;16.12
62706;BMP280;51050;51.784;9.372;2022-07-23T02:13:49;100663.72;;;16.11
62706;BMP280;51050;51.784;9.372;2022-07-23T02:16:15;100673.19;;;16.19
62706;BMP280;51050;51.784;9.372;2022-07-23T02:18:40;100675.72;;;16.07
62706;BMP280;51050;51.784;9.372;2022-07-23T02:21:05;100678.59;;;16.02
62706;BMP280;51050;51.784;9.372;2022-07-23T02:23:30;100678.91;;;16.00
62706;BMP280;51050;51.784;9.372;2022-07-23T02:25:55;100679.31;;;16.07
62706;BMP280;51050;51.784;9.372;2022-07-23T02:28:20;100664.75;;;16.15
62706;BMP280;51050;51.784;9.372;2022-07-23T02:30:45;100663.78;;;16.20
62706;BMP280;51050;51.784;9.372;2022-07-23T02:33:11;100658.41;;;16.15
62706;BMP280;51050;51.784;9.372;2022-07-23T02:35:36;100666.47;;;16.11
62706;BMP280;51050;51.784;9.372;2022-07-23T02:38:01;100675.44;;;16.17
62706;BMP280;51050;51.784;9.372;2022-07-23T02:40:26;100667.88;;;16.22
62706;BMP280;51050;51.784;9.372;2022-07-23T02:42:51;100671.25;;;16.19
62706;BMP280;51050;51.784;9.372;2022-07-23T02:45:17;100662.47;;;16.17
62706;BMP280;51050;51.784;9.372;2022-07-23T02:47:42;100657.97;;;16.21
62706;BMP280;51050;51.784;9.372;2022-07-23T02:50:07;100649.84;;;16.25
62706;BMP280;51050;51.784;9.372;2022-07-23T02:52:32;100647.28;;;16.28
62706;BMP280;51050;51.784;9.372;2022-07-23T02:54:57;100621.09;;;16.26
62706;BMP280;51050;51.784;9.372;2022-07-23T02:57:23;100630.03;;;16.23
62706;BMP280;51050;51.784;9.372;2022-07-23T02:59:48;100635.81;;;16.13
62706;BMP280;51050;51.784;9.372;2022-07-23T03:02:13;100618.22;;;16.09
62706;BMP280;51050;51.784;9.372;2022-07-23T03:04:38;100614.56;;;16.00
62706;BMP280;51050;51.784;9.372;2022-07-23T03:07:03;100585.41;;;16.07
62706;BMP280;51050;51.784;9.372;2022-07-23T03:09:28;100574.84;;;16.09
62706;BMP280;51050;51.784;9.372;2022-07-23T03:11:53;100589.03;;;16.16
62706;BMP280;51050;51.784;9.372;2022-07-23T03:14:19;100615.91;;;16.02
62706;BMP280;51050;51.784;9.372;2022-07-23T03:16:44;100611.00;;;15.99
62706;BMP280;51050;51.784;9.372;2022-07-23T03:19:09;100615.41;;;16.00
62706;BMP280;51050;51.784;9.372;2022-07-23T03:21:34;100609.47;;;16.07
62706;BMP280;51050;51.784;9.372;2022-07-23T03:24:01;100600.78;;;16.00
62706;BMP280;51050;51.784;9.372;2022-07-23T03:26:26;100600.16;;;16.03
62706;BMP280;51050;51.784;9.372;2022-07-23T03:28:51;100598.22;;;16.03
62706;BMP280;51050;51.784;9.372;2022-07-23T03:31:17;100593.19;;;16.05
62706;BMP280;51050;51.784;9.372;2022-07-23T03:33:42;100603.44;;;16.05
62706;BMP280;51050;51.784;9.372;2022-07-23T03:36:08;100598.97;;;15.95
62706;BMP280;51050;51.784;9.372;2022-07-23T03:38:33;100600.91;;;15.95
62706;BMP280;51050;51.784;9.372;2022-07-23T03:40:59;100596.72;;;15.97
62706;BMP280;51050;51.784;9.372;2022-07-23T03:43:24;100584.09;;;16.05
62706;BMP280;51050;51.784;9.372;2022-07-23T03:45:50;100596.94;;;16.09
62706;BMP280;51050;51.784;9.372;2022-07-23T03:48:15;100603.00;;;15.89
62706;BMP280;51050;51.784;9.372;2022-07-23T03:50:41;100607.19;;;15.86
62706;BMP280;51050;51.784;9.372;2022-07-23T03:53:06;100622.63;;;15.87
62706;BMP280;51050;51.784;9.372;2022-07-23T03:55:32;100606.75;;;15.93
62706;BMP280;51050;51.784;9.372;2022-07-23T03:57:57;100599.47;;;15.97
62706;BMP280;51050;51.784;9.372;2022-07-23T04:00:22;100600.97;;;16.03
62706;BMP280;51050;51.784;9.372;2022-07-23T04:02:47;100589.94;;;16.03
62706;BMP280;51050;51.784;9.372;2022-07-23T04:05:13;100592.19;;;16.01
62706;BMP280;51050;51.784;9.372;2022-07-23T04:07:38;100595.06;;;15.96
62706;BMP280;51050;51.784;9.372;2022-07-23T04:10:03;100594.56;;;15.94
62706;BMP280;51050;51.784;9.372;2022-07-23T04:12:28;100588.06;;;15.90
62706;BMP280;51050;51.784;9.372;2022-07-23T04:14:53;100586.44;;;15.89
62706;BMP280;51050;51.784;9.372;2022-07-23T04:17:19;100584.66;;;15.93
62706;BMP280;51050;51.784;9.372;2022-07-23T04:19:44;100582.34;;;15.86
62706;BMP280;51050;51.784;9.372;2022-07-23T04:22:10;100595.00;;;15.87
62706;BMP280;51050;51.784;9.372;2022-07-23T04:24:35;100607.63;;;15.80
62706;BMP280;51050;51.784;9.372;2022-07-23T04:27:01;100607.13;;;15.78
62706;BMP280;51050;51.784;9.372;2022-07-23T04:29:26;100616.41;;;15.82
62706;BMP280;51050;51.784;9.372;2022-07-23T04:31:51;100619.34;;;15.85
62706;BMP280;51050;51.784;9.372;2022-07-23T04:34:16;100612.41;;;15.88
62706;BMP280;51050;51.784;9.372;2022-07-23T04:36:42;100611.75;;;15.91
62706;BMP280;51050;51.784;9.372;2022-07-23T04:39:07;100609.50;;;15.93
62706;BMP280;51050;51.784;9.372;2022-07-23T04:41:33;100623.00;;;15.95
62706;BMP280;51050;51.784;9.372;2022-07-23T04:43:59;100616.50;;;15.91
62706;BMP280;51050;51.784;9.372;2022-07-23T04:46:24;100625.97;;;15.98
62706;BMP280;51050;51.784;9.372;2022-07-23T04:48:49;100616.84;;;15.98
62706;BMP280;51050;51.784;9.372;2022-07-23T04:51:14;100624.44;;;15.92
62706;BMP280;51050;51.784;9.372;2022-07-23T04:53:39;100627.94;;;15.84
62706;BMP280;51050;51.784;9.372;2022-07-23T04:56:05;100606.88;;;15.88
62706;BMP280;51050;51.784;9.372;2022-07-23T04:58:30;100617.41;;;15.86
62706;BMP280;51050;51.784;9.372;2022-07-23T05:00:56;100617.91;;;15.88
62706;BMP280;51050;51.784;9.372;2022-07-23T05:03:22;100614.50;;;15.91
62706;BMP280;51050;51.784;9.372;2022-07-23T05:05:47;100619.25;;;15.91
62706;BMP280;51050;51.784;9.372;2022-07-23T05:08:13;100620.84;;;15.92
62706;BMP280;51050;51.784;9.372;2022-07-23T05:10:38;100624.44;;;15.92
62706;BMP280;51050;51.784;9.372;2022-07-23T05:13:03;100630.69;;;15.84
62706;BMP280;51050;51.784;9.372;2022-07-23T05:15:28;100637.69;;;15.81
62706;BMP280;51050;51.784;9.372;2022-07-23T05:17:53;100641.06;;;15.78
62706;BMP280;51050;51.784;9.372;2022-07-23T05:20:18;100638.97;;;15.84
62706;BMP280;51050;51.784;9.372;2022-07-23T05:22:43;100632.84;;;15.87
62706;BMP280;51050;51.784;9.372;2022-07-23T05:25:09;100634.03;;;15.95
62706;BMP280;51050;51.784;9.372;2022-07-23T05:27:34;100632.38;;;16.07
62706;BMP280;51050;51.784;9.372;2022-07-23T05:29:59;100629.09;;;16.05
62706;BMP280;51050;51.784;9.372;2022-07-23T05:32:24;100630.72;;;16.06
62706;BMP280;51050;51.784;9.372;2022-07-23T05:34:49;100630.59;;;16.11
62706;BMP280;51050;51.784;9.372;2022-07-23T05:37:15;100626.69;;;16.12
62706;BMP280;51050;51.784;9.372;2022-07-23T05:39:40;100623.81;;;16.17
62706;BMP280;51050;51.784;9.372;2022-07-23T05:42:05;100627.13;;;16.28
62706;BMP280;51050;51.784;9.372;2022-07-23T05:44:30;100630.91;;;16.32
62706;BMP280;51050;51.784;9.372;2022-07-23T05:46:55;100634.75;;;16.22
62706;BMP280;51050;51.784;9.372;2022-07-23T05:49:20;100634.91;;;16.26
62706;BMP280;51050;51.784;9.372;2022-07-23T05:51:46;100627.94;;;16.28
62706;BMP280;51050;51.784;9.372;2022-07-23T05:54:11;100621.16;;;16.35
62706;BMP280;51050;51.784;9.372;2022-07-23T05:56:36;100638.38;;;16.32
62706;BMP280;51050;51.784;9.372;2022-07-23T05:59:01;100638.78;;;16.25
62706;BMP280;51050;51.784;9.372;2022-07-23T06:01:26;100630.84;;;16.23
62706;BMP280;51050;51.784;9.372;2022-07-23T06:03:51;100633.72;;;16.18
62706;BMP280;51050;51.784;9.372;2022-07-23T06:06:17;100630.97;;;16.18
62706;BMP280;51050;51.784;9.372;2022-07-23T06:08:42;100643.34;;;16.21
62706;BMP280;51050;51.784;9.372;2022-07-23T06:11:07;100634.75;;;16.22
62706;BMP280;51050;51.784;9.372;2022-07-23T06:13:32;100635.88;;;16.21
62706;BMP280;51050;51.784;9.372;2022-07-23T06:15:57;100640.78;;;16.24
62706;BMP280;51050;51.784;9.372;2022-07-23T06:18:22;100641.69;;;16.20
62706;BMP280;51050;51.784;9.372;2022-07-23T06:20:48;100640.88;;;16.19
62706;BMP280;51050;51.784;9.372;2022-07-23T06:23:13;100653.56;;;16.20
62706;BMP280;51050;51.784;9.372;2022-07-23T06:25:38;100658.56;;;16.18
62706;BMP280;51050;51.784;9.372;2022-07-23T06:28:03;100655.66;;;16.15
62706;BMP280;51050;51.784;9.372;2022-07-23T06:30:28;100658.25;;;16.20
62706;BMP280;51050;51.784;9.372;2022-07-23T06:32:53;100663.78;;;16.20
62706;BMP280;51050;51.784;9.372;2022-07-23T06:35:19;100662.34;;;16.22
62706;BMP280;51050;51.784;9.372;2022-07-23T06:37:44;100664.09;;;16.41
62706;BMP280;51050;51.784;9.372;2022-07-23T06:40:09;100673.75;;;16.52
62706;BMP280;51050;51.784;9.372;2022-07-23T06:42:34;100666.34;;;16.61
62706;BMP280;51050;51.784;9.372;2022-07-23T06:45:02;100676.84;;;16.73
62706;BMP280;51050;51.784;9.372;2022-07-23T06:47:27;100666.75;;;16.77
62706;BMP280;51050;51.784;9.372;2022-07-23T06:49:52;100669.56;;;16.85
62706;BMP280;51050;51.784;9.372;2022-07-23T06:52:17;100676.13;;;16.98
62706;BMP280;51050;51.784;9.372;2022-07-23T06:54:43;100677.16;;;17.11
62706;BMP280;51050;51.784;9.372;2022-07-23T06:57:08;100673.94;;;17.17
62706;BMP280;51050;51.784;9.372;2022-07-23T06:59:33;100673.94;;;17.17
62706;BMP280;51050;51.784;9.372;2022-07-23T07:02:01;100677.69;;;17.21
62706;BMP280;51050;51.784;9.372;2022-07-23T07:04:26;100670.19;;;17.22
62706;BMP280;51050;51.784;9.372;2022-07-23T07:06:51;100681.78;;;17.24
62706;BMP280;51050;51.784;9.372;2022-07-23T07:09:16;100685.06;;;17.34
62706;BMP280;51050;51.784;9.372;2022-07-23T07:11:41;100675.78;;;17.39
62706;BMP280;51050;51.784;9.372;2022-07-23T07:14:06;100688.19;;;17.42
62706;BMP280;51050;51.784;9.372;2022-07-23T07:16:32;100687.34;;;17.32
62706;BMP280;51050;51.784;9.372;2022-07-23T07:18:57;100690.19;;;17.19
62706;BMP280;51050;51.784;9.372;2022-07-23T07:21:22;100694.25;;;17.13
62706;BMP280;51050;51.784;9.372;2022-07-23T07:23:47;100693.75;;;17.11
62706;BMP280;51050;51.784;9.372;2022-07-23T07:26:12;100696.81;;;17.00
62706;BMP280;51050;51.784;9.372;2022-07-23T07:28:37;100699.84;;;16.90
62706;BMP280;51050;51.784;9.372;2022-07-23T07:31:03;100703.25;;;16.87
62706;BMP280;51050;51.784;9.372;2022-07-23T07:33:28;100703.56;;;16.86
62706;BMP280;51050;51.784;9.372;2022-07-23T07:35:53;100707.03;;;16.91
62706;BMP280;51050;51.784;9.372;2022-07-23T07:38:18;100707.22;;;17.03
62706;BMP280;51050;51.784;9.372;2022-07-23T07:40:44;100713.38;;;17.31
62706;BMP280;51050;51.784;9.372;2022-07-23T07:43:09;100701.53;;;17.48
62706;BMP280;51050;51.784;9.372;2022-07-23T07:45:34;100703.16;;;17.49
62706;BMP280;51050;51.784;9.372;2022-07-23T07:47:59;100707.69;;;17.45
62706;BMP280;51050;51.784;9.372;2022-07-23T07:50:24;100708.69;;;17.40
62706;BMP280;51050;51.784;9.372;2022-07-23T07:52:50;100715.03;;;17.41
62706;BMP280;51050;51.784;9.372;2022-07-23T07:55:15;100714.53;;;17.39
62706;BMP280;51050;51.784;9.372;2022-07-23T07:57:40;100720.03;;;17.30
62706;BMP280;51050;51.784;9.372;2022-07-23T08:00:06;100714.03;;;17.37
62706;BMP280;51050;51.784;9.372;2022-07-23T08:02:44;100715.38;;;17.48
62706;BMP280;51050;51.784;9.372;2022-07-23T08:05:11;100711.03;;;17.64
62706;BMP280;51050;51.784;9.372;2022-07-23T08:07:36;100713.66;;;17.78
62706;BMP280;51050;51.784;9.372;2022-07-23T08:10:02;100713.84;;;17.82
62706;BMP280;51050;51.784;9.372;2022-07-23T08:12:27;100716.63;;;17.82
62706;BMP280;51050;51.784;9.372;2022-07-23T08:14:53;100721.00;;;17.83
62706;BMP280;51050;51.784;9.372;2022-07-23T08:17:18;100723.44;;;17.75
62706;BMP280;51050;51.784;9.372;2022-07-23T08:19:43;100726.38;;;17.79
62706;BMP280;51050;51.784;9.372;2022-07-23T08:22:08;100727.53;;;17.87
62706;BMP280;51050;51.784;9.372;2022-07-23T08:24:33;100729.16;;;17.88
62706;BMP280;51050;51.784;9.372;2022-07-23T08:26:58;100732.75;;;17.97
62706;BMP280;51050;51.784;9.372;2022-07-23T08:29:23;100734.38;;;17.98
62706;BMP280;51050;51.784;9.372;2022-07-23T08:31:49;100737.16;;;17.98
62706;BMP280;51050;51.784;9.372;2022-07-23T08:34:14;100731.13;;;17.96
62706;BMP280;51050;51.784;9.372;2022-07-23T08:36:39;100730.66;;;18.11
62706;BMP280;51050;51.784;9.372;2022-07-23T08:39:04;100704.41;;;18.00
62706;BMP280;51050;51.784;9.372;2022-07-23T08:41:29;100738.97;;;18.11
62706;BMP280;51050;51.784;9.372;2022-07-23T08:43:54;100745.78;;;17.88
62706;BMP280;51050;51.784;9.372;2022-07-23T08:46:20;100743.84;;;17.97
62706;BMP280;51050;51.784;9.372;2022-07-23T08:48:47;100741.91;;;18.14
62706;BMP280;51050;51.784;9.372;2022-07-23T08:51:12;100746.63;;;18.23
62706;BMP280;51050;51.784;9.372;2022-07-23T08:53:37;100735.41;;;18.36
62706;BMP280;51050;51.784;9.372;2022-07-23T08:56:04;100746.31;;;18.24
62706;BMP280;51050;51.784;9.372;2022-07-23T08:58:29;100752.16;;;18.14
62706;BMP280;51050;51.784;9.372;2022-07-23T09:00:55;100741.41;;;18.12
62706;BMP280;51050;51.784;9.372;2022-07-23T09:03:22;100745.47;;;18.32
62706;BMP280;51050;51.784;9.372;2022-07-23T09:05:49;100753.00;;;18.58
62706;BMP280;51050;51.784;9.372;2022-07-23T09:08:15;100754.44;;;18.46
62706;BMP280;51050;51.784;9.372;2022-07-23T09:10:51;100754.78;;;18.45
62706;BMP280;51050;51.784;9.372;2022-07-23T09:13:30;100759.34;;;18.32
62706;BMP280;51050;51.784;9.372;2022-07-23T09:15:57;100757.38;;;18.15
62706;BMP280;51050;51.784;9.372;2022-07-23T09:21:17;100745.47;;;18.32
62706;BMP280;51050;51.784;9.372;2022-07-23T09:23:44;100755.09;;;18.52
62706;BMP280;51050;51.784;9.372;2022-07-23T09:26:16;100753.47;;;18.68
62706;BMP280;51050;51.784;9.372;2022-07-23T09:28:58;100752.50;;;18.64
62706;BMP280;51050;51.784;9.372;2022-07-23T09:31:24;100751.03;;;18.49
62706;BMP280;51050;51.784;9.372;2022-07-23T09:33:49;100753.97;;;18.53
62706;BMP280;51050;51.784;9.372;2022-07-23T09:36:15;100753.28;;;18.56
62706;BMP280;51050;51.784;9.372;2022-07-23T09:38:47;100760.78;;;18.56
62706;BMP280;51050;51.784;9.372;2022-07-23T09:41:12;100754.78;;;18.71
62706;BMP280;51050;51.784;9.372;2022-07-23T09:43:38;100751.00;;;18.84
62706;BMP280;51050;51.784;9.372;2022-07-23T09:46:22;100760.28;;;18.97
62706;BMP280;51050;51.784;9.372;2022-07-23T09:48:49;100748.06;;;18.72
62706;BMP280;51050;51.784;9.372;2022-07-23T09:51:16;100743.84;;;18.74
62706;BMP280;51050;51.784;9.372;2022-07-23T09:53:49;100744.47;;;18.80
62706;BMP280;51050;51.784;9.372;2022-07-23T09:56:14;100755.56;;;18.80
62706;BMP280;51050;51.784;9.372;2022-07-23T09:58:40;100755.94;;;18.70
62706;BMP280;51050;51.784;9.372;2022-07-23T10:01:10;100757.56;;;18.71
62706;BMP280;51050;51.784;9.372;2022-07-23T10:03:35;100755.13;;;18.69
62706;BMP280;51050;51.784;9.372;2022-07-23T10:06:01;100761.44;;;18.87
62706;BMP280;51050;51.784;9.372;2022-07-23T10:08:26;100746.03;;;19.07
62706;BMP280;51050;51.784;9.372;2022-07-23T10:10:51;100744.19;;;19.28
62706;BMP280;51050;51.784;9.372;2022-07-23T10:13:18;100745.63;;;19.34
62706;BMP280;51050;51.784;9.372;2022-07-23T10:16:02;100744.53;;;19.18
62706;BMP280;51050;51.784;9.372;2022-07-23T10:18:27;100750.78;;;19.06
62706;BMP280;51050;51.784;9.372;2022-07-23T10:20:52;100750.50;;;18.90
62706;BMP280;51050;51.784;9.372;2022-07-23T10:23:27;100749.03;;;18.84
62706;BMP280;51050;51.784;9.372;2022-07-23T10:33:33;100737.72;;;19.53
62706;BMP280;51050;51.784;9.372;2022-07-23T10:36:11;100734.13;;;19.53
62706;BMP280;51050;51.784;9.372;2022-07-23T10:38:42;100733.47;;;19.56
62706;BMP280;51050;51.784;9.372;2022-07-23T10:41:10;100748.50;;;19.46
62706;BMP280;51050;51.784;9.372;2022-07-23T10:43:35;100748.59;;;19.29
62706;BMP280;51050;51.784;9.372;2022-07-23T10:46:20;100743.34;;;19.27
62706;BMP280;51050;51.784;9.372;2022-07-23T10:49:05;100740.06;;;19.34
62706;BMP280;51050;51.784;9.372;2022-07-23T10:51:32;100741.84;;;19.47
62706;BMP280;51050;51.784;9.372;2022-07-23T10:53:58;100736.53;;;19.63
62706;BMP280;51050;51.784;9.372;2022-07-23T10:59:07;100736.69;;;19.87
62706;BMP280;51050;51.784;9.372;2022-07-23T11:01:39;100734.97;;;19.74
62706;BMP280;51050;51.784;9.372;2022-07-23T11:04:04;100735.34;;;19.73
62706;BMP280;51050;51.784;9.372;2022-07-23T11:17:27;100729.31;;;19.91
62706;BMP280;51050;51.784;9.372;2022-07-23T11:22:46;100728.28;;;19.75
62706;BMP280;51050;51.784;9.372;2022-07-23T11:25:13;100730.00;;;19.88
62706;BMP280;51050;51.784;9.372;2022-07-23T11:27:42;100725.31;;;20.01
62706;BMP280;51050;51.784;9.372;2022-07-23T11:30:08;100727.34;;;20.13
62706;BMP280;51050;51.784;9.372;2022-07-23T11:32:34;100726.63;;;20.03
62706;BMP280;51050;51.784;9.372;2022-07-23T11:35:00;100720.09;;;19.99
62706;BMP280;51050;51.784;9.372;2022-07-23T11:39:55;100705.03;;;20.00
62706;BMP280;51050;51.784;9.372;2022-07-23T11:42:20;100710.00;;;20.16
62706;BMP280;51050;51.784;9.372;2022-07-23T11:44:46;100704.25;;;20.21
62706;BMP280;51050;51.784;9.372;2022-07-23T11:47:11;100714.00;;;20.27
62706;BMP280;51050;51.784;9.372;2022-07-23T11:49:38;100721.84;;;20.25
62706;BMP280;51050;51.784;9.372;2022-07-23T11:54:29;100706.47;;;20.27
62706;BMP280;51050;51.784;9.372;2022-07-23T11:56:55;100708.38;;;20.35
62706;BMP280;51050;51.784;9.372;2022-07-23T11:59:20;100709.19;;;20.36
62706;BMP280;51050;51.784;9.372;2022-07-23T12:01:56;100707.72;;;20.38
62706;BMP280;51050;51.784;9.372;2022-07-23T12:04:21;100713.19;;;20.47
62706;BMP280;51050;51.784;9.372;2022-07-23T12:06:46;100711.81;;;20.53
62706;BMP280;51050;51.784;9.372;2022-07-23T12:09:12;100708.03;;;20.58
62706;BMP280;51050;51.784;9.372;2022-07-23T12:11:37;100706.31;;;20.65
62706;BMP280;51050;51.784;9.372;2022-07-23T12:14:02;100710.25;;;20.64
62706;BMP280;51050;51.784;9.372;2022-07-23T12:16:27;100714.91;;;20.72
62706;BMP280;51050;51.784;9.372;2022-07-23T12:18:52;100714.91;;;20.72
62706;BMP280;51050;51.784;9.372;2022-07-23T12:21:18;100708.53;;;20.72
62706;BMP280;51050;51.784;9.372;2022-07-23T12:23:43;100705.16;;;20.66
62706;BMP280;51050;51.784;9.372;2022-07-23T12:26:13;100709.91;;;20.66
62706;BMP280;51050;51.784;9.372;2022-07-23T12:28:38;100710.25;;;20.76
62706;BMP280;51050;51.784;9.372;2022-07-23T12:31:04;100710.88;;;20.94
62706;BMP280;51050;51.784;9.372;2022-07-23T12:35:57;100718.41;;;20.82
62706;BMP280;51050;51.784;9.372;2022-07-23T12:38:23;100719.09;;;20.78
62706;BMP280;51050;51.784;9.372;2022-07-23T12:40:49;100721.91;;;20.91
62706;BMP280;51050;51.784;9.372;2022-07-23T12:43:19;100707.56;;;21.01
62706;BMP280;51050;51.784;9.372;2022-07-23T12:45:52;100715.81;;;21.09
62706;BMP280;51050;51.784;9.372;2022-07-23T12:48:27;100706.47;;;20.93
62706;BMP280;51050;51.784;9.372;2022-07-23T12:51:01;100716.00;;;21.04
62706;BMP280;51050;51.784;9.372;2022-07-23T12:53:30;100714.91;;;21.18
62706;BMP280;51050;51.784;9.372;2022-07-23T12:55:57;100720.72;;;21.25
62706;BMP280;51050;51.784;9.372;2022-07-23T12:58:23;100715.25;;;21.28
62706;BMP280;51050;51.784;9.372;2022-07-23T13:00:56;100711.44;;;21.33
62706;BMP280;51050;51.784;9.372;2022-07-23T13:03:36;100717.09;;;21.36
62706;BMP280;51050;51.784;9.372;2022-07-23T13:06:02;100720.34;;;21.38
62706;BMP280;51050;51.784;9.372;2022-07-23T13:08:29;100714.22;;;21.33
62706;BMP280;51050;51.784;9.372;2022-07-23T13:10:54;100712.81;;;21.39
62706;BMP280;51050;51.784;9.372;2022-07-23T13:13:27;100708.16;;;21.55
62706;BMP280;51050;51.784;9.372;2022-07-23T13:15:52;100710.13;;;21.55
62706;BMP280;51050;51.784;9.372;2022-07-23T13:18:18;100724.06;;;21.55
62706;BMP280;51050;51.784;9.372;2022-07-23T13:20:44;100717.34;;;21.68
62706;BMP280;51050;51.784;9.372;2022-07-23T13:23:09;100713.84;;;21.83
62706;BMP280;51050;51.784;9.372;2022-07-23T13:25:35;100715.69;;;21.91
62706;BMP280;51050;51.784;9.372;2022-07-23T13:28:00;100723.69;;;22.05
62706;BMP280;51050;51.784;9.372;2022-07-23T13:30:25;100712.00;;;22.83
62706;BMP280;51050;51.784;9.372;2022-07-23T13:32:50;100709.13;;;24.66
62706;BMP280;51050;51.784;9.372;2022-07-23T13:35:16;100721.19;;;26.14
62706;BMP280;51050;51.784;9.372;2022-07-23T13:37:41;100709.72;;;27.30
62706;BMP280;51050;51.784;9.372;2022-07-23T13:40:06;100699.22;;;28.61
62706;BMP280;51050;51.784;9.372;2022-07-23T13:42:31;100700.88;;;28.66
62706;BMP280;51050;51.784;9.372;2022-07-23T13:44:57;100694.53;;;29.44
62706;BMP280;51050;51.784;9.372;2022-07-23T13:47:22;100697.19;;;30.25
62706;BMP280;51050;51.784;9.372;2022-07-23T13:49:47;100695.72;;;29.53
62706;BMP280;51050;51.784;9.372;2022-07-23T13:52:12;100698.91;;;29.02
62706;BMP280;51050;51.784;9.372;2022-07-23T13:54:37;100696.16;;;29.52
62706;BMP280;51050;51.784;9.372;2022-07-23T13:57:02;100705.63;;;28.48
62706;BMP280;51050;51.784;9.372;2022-07-23T13:59:27;100709.47;;;28.11
62706;BMP280;51050;51.784;9.372;2022-07-23T14:01:53;100702.16;;;28.90
62706;BMP280;51050;51.784;9.372;2022-07-23T14:04:18;100701.72;;;29.98
62706;BMP280;51050;51.784;9.372;2022-07-23T14:06:43;100695.34;;;29.41
62706;BMP280;51050;51.784;9.372;2022-07-23T14:09:08;100698.88;;;27.87
62706;BMP280;51050;51.784;9.372;2022-07-23T14:11:34;100702.56;;;26.96
62706;BMP280;51050;51.784;9.372;2022-07-23T14:13:59;100701.47;;;26.70
62706;BMP280;51050;51.784;9.372;2022-07-23T14:16:25;100704.91;;;25.93
62706;BMP280;51050;51.784;9.372;2022-07-23T14:18:50;100708.63;;;25.75
62706;BMP280;51050;51.784;9.372;2022-07-23T14:21:16;100704.09;;;25.44
62706;BMP280;51050;51.784;9.372;2022-07-23T14:23:41;100702.22;;;25.25